EHRDEDLV

Guest
Details From EHRD - Rotterdam The Hague
To EDLV - NIEDERRHEIN
Flight Number -
Tags decoded
Created
Modified
Stats Distance 108 nm / 199 km
Max Altitude 0 ft / 0 m
Waypoints 4
Social Downloads 1
Likes 0
Share VATSIM

Download

Looking for another format? Having issues loading an existing format? Contact us
Advertisement - Login to hide

Notes

Requested: EHRD ARNEM T196 TEBRO P71 SOBTU EDLV Unmatched points: T196 P71 SOBTU

Route

EHRD ARNEM TEBRO EDLV

ID Type Via Altitude Latitude Longitude Leg Dist Tot Dist Heading (true) Name
O EHRD APT - 0 ft / 0 m 51.95747˚ 4.44166˚ - 0 nm - Rotterdam The Hague
ARNEM FIX - 0 ft / 0 m 52.09645˚ 6.07660˚ 60 nm 60 nm 81° / 83° -
TEBRO FIX - 0 ft / 0 m 51.89417˚ 6.58778˚ 22 nm 83 nm 123° / 123° -
O EDLV APT - 0 ft / 0 m 51.60246˚ 6.14213˚ 24 nm 107 nm 224° / 223° NIEDERRHEIN

Altitude Profile

Advertisement - Login to hide

EHRD

Details ICAO EHRD (RTM)
Name Rotterdam The Hague
Region Netherlands
Timezone Europe/Amsterdam (UTC+1.0)
Stats Elevation -15 ft / -5 m (AMSL)
Location 51.957468° 4.441662°
Runways 1
Magnetic Variation 1.049° E

METAR

EHRD 171425Z AUTO 24008KT 9999 FEW015 05/03 Q1022 NOSIG

Decode

TAF

TAF TAF EHRD 171111Z 1712/1818 22006KT 9999 FEW025 BECMG 1715/1718 21011KT BECMG 1718/1720 20016KT 7000 -RA SCT012 BKN018 BECMG 1720/1722 4000 RA BKN008 BECMG 1723/1802 34015KT 9999 NSW SCT018 PROB30 TEMPO 1723/1801 2000 DZRA SCT003 BKN004 PROB30 TEMPO 1801/1810 7000 -SHRA SCT020TCU BECMG 1806/1809 34010KT BECMG 1815/1818 32005KT

Decode

Departure Runways

ID Width Length Bearing (true) Bearing (mag) Surface Threshold Offset Overrun Length
06 148 ft / 45 m 7,201 ft / 2,195 m 56.93° 55.88° Asphalt 656 ft / 200 m 0 ft / 0 m
24 148 ft / 45 m 7,201 ft / 2,195 m 236.95° 235.90° Asphalt 656 ft / 200 m 0 ft / 0 m

EDLV

Details ICAO EDLV (NRN)
Name NIEDERRHEIN
Region Germany - Civil
Timezone Europe/Berlin (UTC+1.0)
Stats Elevation 106 ft / 32 m (AMSL)
Location 51.602455° 6.142132°
Runways 1
Magnetic Variation 1.606° E

METAR

EDLV 171420Z 22008KT 1500 BR VV/// 02/02 Q1023

Decode

TAF

TAF TAF EDLV 171100Z 1712/1812 23006KT 0500 FG OVC000 BECMG 1712/1715 6000 SCT005 TEMPO 1715/1719 3500 BR BKN006 BECMG 1719/1722 20011KT BKN007 TEMPO 1722/1801 3000 RASN BKN004 BECMG 1800/1803 26008KT TEMPO 1801/1804 3500 -DZRA BR BKN004 BECMG 1804/1807 32006KT BKN015

Decode

Destination Runways

ID Width Length Bearing (true) Bearing (mag) Surface Threshold Offset Overrun Length
09 148 ft / 45 m 7,981 ft / 2,433 m 92.02° 90.41° Asphalt 0 ft / 0 m 902 ft / 275 m
27 148 ft / 45 m 7,981 ft / 2,433 m 272.05° 270.44° Asphalt 0 ft / 0 m 902 ft / 275 m

Approach Navaids

Runway Type Ident Frequency Range Bearing (true) Bearing (mag) Slope Elevation
27 Localiser INIW 110.70 MHz 18 nm / 33 km 271.93° 270.32° - 106 ft / 32 m (AMSL)
27 Glidescope INIW 110.70 MHz 10 nm / 19 km 272.04° 270.43° 3.00° 106 ft / 32 m (AMSL)

Popular Alternatives